Time;durP1;ratioP1;P1;durP2;ratioP2;P2;SDS_P1;SDS_P2;PMS_P1;PMS_P2;Temp;Humidity;BMP_temperature;BMP_pressure;BME280_temperature;BME280_humidity;BME280_pressure;Samples;Min_cycle;Max_cycle;Signal;HPM_P1;HPM_P2
2022/04/28 00:00:57;;;;;;;5.57;3.10;;;;;;;11.26;84.56;100222.91;4484515;31;34292;-69
2022/04/28 00:03:26;;;;;;;5.50;3.10;;;;;;;11.00;86.14;100228.91;4485192;32;34760;-67
2022/04/28 00:05:53;;;;;;;5.60;3.37;;;;;;;11.11;85.31;100219.91;4485632;32;34317;-67
2022/04/28 00:08:21;;;;;;;5.68;2.90;;;;;;;11.11;85.73;100216.37;4485296;32;34068;-67
2022/04/28 00:10:49;;;;;;;7.62;3.50;;;;;;;11.31;84.55;100224.91;4485367;32;33396;-66
2022/04/28 00:13:17;;;;;;;4.37;2.60;;;;;;;11.09;86.46;100219.31;4485139;32;34930;-66
2022/04/28 00:15:45;;;;;;;4.62;3.03;;;;;;;11.14;85.83;100224.03;4485486;32;34233;-65
2022/04/28 00:18:13;;;;;;;4.62;3.03;;;;;;;11.38;83.94;100225.59;4484978;32;34067;-67
2022/04/28 00:20:40;;;;;;;6.10;3.17;;;;;;;11.11;86.08;100217.19;4485410;32;33392;-66
2022/04/28 00:23:07;;;;;;;4.70;3.33;;;;;;;11.59;83.35;100225.97;4485038;32;34112;-70
2022/04/28 00:25:35;;;;;;;5.22;3.30;;;;;;;11.78;82.15;100229.31;4485180;32;33884;-68
2022/04/28 00:28:03;;;;;;;6.03;3.25;;;;;;;11.93;81.32;100224.16;4485187;32;35316;-67
2022/04/28 00:30:30;;;;;;;4.37;3.08;;;;;;;11.79;81.57;100220.06;4484038;32;33464;-69
2022/04/28 00:32:58;;;;;;;3.95;2.85;;;;;;;12.28;79.54;100223.09;4484466;32;33768;-66
2022/04/28 00:35:26;;;;;;;4.07;2.90;;;;;;;12.14;79.67;100219.03;4482516;32;34309;-66
2022/04/28 00:37:53;;;;;;;4.00;2.80;;;;;;;12.17;79.27;100224.00;4472545;32;34255;-66
2022/04/28 00:40:21;;;;;;;3.97;2.60;;;;;;;12.27;78.78;100226.91;4476368;32;33654;-69
2022/04/28 00:42:49;;;;;;;4.45;3.00;;;;;;;12.04;79.24;100223.25;4477253;32;33871;-69
2022/04/28 00:45:16;;;;;;;4.62;2.85;;;;;;;12.17;78.99;100229.44;4471099;32;34041;-67
2022/04/28 00:50:40;;;;;;;4.97;2.72;;;;;;;12.35;77.94;100223.72;4476466;32;33509;-66
2022/04/28 00:53:11;;;;;;;4.72;3.10;;;;;;;11.93;79.70;100224.16;4476099;32;33926;-67
2022/04/28 00:55:41;;;;;;;3.97;3.00;;;;;;;11.70;80.52;100228.66;4473104;32;34041;-65
2022/04/28 00:58:10;;;;;;;5.62;3.55;;;;;;;11.82;79.78;100228.56;4476464;32;33807;-66
2022/04/28 01:00:39;;;;;;;4.15;2.80;;;;;;;12.39;76.96;100224.88;4471497;32;33506;-66
2022/04/28 01:03:11;;;;;;;5.32;3.17;;;;;;;11.56;80.86;100229.19;4478098;32;34096;-66
2022/04/28 01:05:39;;;;;;;4.68;3.15;;;;;;;11.62;80.75;100228.19;4476139;32;34241;-66
2022/04/28 01:08:07;;;;;;;5.18;2.97;;;;;;;11.83;79.35;100224.75;4475720;32;34078;-67
2022/04/28 01:10:35;;;;;;;5.18;3.10;;;;;;;11.89;78.96;100221.09;4473183;32;33106;-67
2022/04/28 01:13:04;;;;;;;4.62;3.05;;;;;;;11.38;80.96;100217.47;4475807;32;34920;-66
2022/04/28 01:15:51;;;;;;;4.35;2.83;;;;;;;11.36;81.23;100221.47;4476184;32;34308;-67
2022/04/28 01:18:19;;;;;;;5.05;2.72;;;;;;;11.36;81.70;100216.87;4474806;32;33919;-66
2022/04/28 01:20:47;;;;;;;5.20;3.47;;;;;;;10.63;85.06;100221.88;4474858;32;33485;-67
2022/04/28 01:23:15;;;;;;;4.93;3.17;;;;;;;11.37;81.56;100215.78;4475965;32;34806;-70
2022/04/28 01:25:42;;;;;;;4.68;3.10;;;;;;;11.67;79.87;100212.00;4481508;32;34003;-65
2022/04/28 01:28:10;;;;;;;4.25;2.97;;;;;;;11.81;78.84;100201.62;4484063;32;34137;-67
2022/04/28 01:30:38;;;;;;;5.22;3.37;;;;;;;11.61;79.72;100211.06;4483979;32;33751;-67
2022/04/28 01:33:06;;;;;;;4.65;2.72;;;;;;;11.48;80.45;100214.09;4484522;32;33842;-67
2022/04/28 01:35:33;;;;;;;5.50;3.42;;;;;;;11.56;80.13;100211.00;4484433;32;34076;-67
2022/04/28 01:38:01;;;;;;;5.47;3.35;;;;;;;11.12;82.27;100204.41;4484373;32;34457;-67
2022/04/28 01:40:29;;;;;;;5.28;3.37;;;;;;;11.20;81.96;100207.56;4484047;32;33520;-67
2022/04/28 01:42:58;;;;;;;5.43;3.22;;;;;;;11.20;82.16;100204.88;4486211;32;33647;-68
2022/04/28 01:45:25;;;;;;;4.65;2.85;;;;;;;11.32;81.96;100206.72;4485088;32;33711;-67
2022/04/28 01:47:55;;;;;;;4.93;2.83;;;;;;;11.33;81.32;100206.47;4486815;32;34079;-67
2022/04/28 01:50:22;;;;;;;5.43;3.30;;;;;;;11.42;80.70;100201.47;4486257;32;34130;-67
2022/04/28 01:55:37;;;;;;;5.87;3.20;;;;;;;11.24;80.56;100207.94;4486691;32;35133;-67
2022/04/28 01:58:07;;;;;;;5.50;3.22;;;;;;;11.36;80.18;100206.00;4486511;32;34761;-67
2022/04/28 02:00:39;;;;;;;4.53;3.15;;;;;;;11.89;77.71;100203.97;4485967;32;33822;-66
2022/04/28 02:03:07;;;;;;;5.80;3.42;;;;;;;12.05;76.72;100205.03;4486410;32;34815;-67
2022/04/28 02:05:35;;;;;;;5.30;3.08;;;;;;;12.21;75.91;100214.28;4486282;32;35263;-66
2022/04/28 02:08:04;;;;;;;5.30;3.25;;;;;;;12.24;75.69;100214.59;4486484;32;34082;-66
2022/04/28 02:10:32;;;;;;;4.80;3.28;;;;;;;12.37;75.01;100216.16;4486095;32;33568;-66
2022/04/28 02:12:59;;;;;;;5.00;3.00;;;;;;;11.80;77.48;100219.00;4486281;32;33937;-69
2022/04/28 02:15:32;;;;;;;5.65;3.28;;;;;;;12.19;76.21;100219.97;4486274;31;31966;-67
2022/04/28 02:18:03;;;;;;;4.93;3.20;;;;;;;12.62;73.75;100215.72;4486388;31;32441;-66
2022/04/28 02:20:31;;;;;;;4.78;3.05;;;;;;;12.48;74.35;100212.53;4486148;32;34453;-67
2022/04/28 02:22:59;;;;;;;5.45;3.30;;;;;;;12.88;72.52;100210.59;4485539;32;34117;-67
2022/04/28 02:25:27;;;;;;;4.93;3.20;;;;;;;12.81;72.79;100201.81;4486467;32;34186;-67
2022/04/28 02:27:55;;;;;;;5.78;3.22;;;;;;;12.49;73.51;100205.19;4486191;32;33977;-67
2022/04/28 02:30:22;;;;;;;4.95;3.03;;;;;;;12.51;73.93;100203.84;4485244;32;34211;-67
2022/04/28 02:33:08;;;;;;;5.62;3.15;;;;;;;12.11;75.03;100204.88;4486004;32;33854;-67
2022/04/28 02:35:38;;;;;;;7.60;2.83;;;;;;;11.98;75.72;100202.47;4486148;32;35354;-67
2022/04/28 02:38:06;;;;;;;4.97;3.00;;;;;;;12.19;75.09;100194.66;4485840;32;33991;-67
2022/04/28 02:40:34;;;;;;;4.70;2.80;;;;;;;12.42;74.05;100196.34;4486280;32;34219;-66
2022/04/28 02:43:02;;;;;;;4.80;3.30;;;;;;;12.34;74.45;100196.78;4485431;32;33893;-67
2022/04/28 02:45:29;;;;;;;4.60;2.60;;;;;;;12.23;74.48;100198.53;4486355;32;34031;-69
2022/04/28 02:47:59;;;;;;;5.87;2.70;;;;;;;12.21;74.54;100198.78;4486198;32;34100;-67
2022/04/28 02:50:26;;;;;;;5.50;2.85;;;;;;;12.09;74.96;100198.03;4485927;32;33448;-67
2022/04/28 02:52:54;;;;;;;5.62;3.00;;;;;;;12.42;73.87;100197.19;4485297;32;34757;-67
2022/04/28 02:55:21;;;;;;;5.07;3.15;;;;;;;12.33;73.55;100195.94;4486058;32;34241;-66
2022/04/28 02:57:49;;;;;;;5.15;3.08;;;;;;;11.37;77.65;100195.97;4485403;32;34060;-67
2022/04/28 03:00:16;;;;;;;5.43;3.42;;;;;;;11.74;76.51;100199.06;4486046;32;33452;-67
2022/04/28 03:02:44;;;;;;;6.43;3.60;;;;;;;11.67;76.71;100203.84;4486351;32;34059;-67
2022/04/28 03:05:12;;;;;;;4.55;2.87;;;;;;;11.72;76.36;100203.09;4485698;32;34228;-67
2022/04/28 03:10:49;;;;;;;6.25;3.25;;;;;;;12.13;74.87;100204.62;4485875;32;33766;-67
2022/04/28 03:13:21;;;;;;;5.55;3.00;;;;;;;12.01;75.14;100204.72;4485874;32;34068;-67
2022/04/28 03:15:50;;;;;;;4.35;2.83;;;;;;;12.10;74.20;100203.22;4485979;32;33918;-67
2022/04/28 03:18:18;;;;;;;5.05;2.85;;;;;;;12.00;74.59;100203.06;4484494;32;33977;-67
2022/04/28 03:20:46;;;;;;;4.70;3.17;;;;;;;12.36;72.90;100203.63;4485941;32;33575;-67
2022/04/28 03:23:14;;;;;;;5.57;3.53;;;;;;;10.73;80.14;100210.41;4485369;32;33801;-67
2022/04/28 03:25:43;;;;;;;7.28;3.40;;;;;;;11.36;77.75;100213.31;4484595;32;34241;-67
2022/04/28 03:28:10;;;;;;;5.45;3.45;;;;;;;11.62;76.26;100209.16;4485505;32;34683;-68
2022/04/28 03:30:38;;;;;;;5.47;3.37;;;;;;;11.47;76.84;100218.72;4485703;32;33331;-68
2022/04/28 03:33:05;;;;;;;6.57;3.15;;;;;;;11.47;76.54;100209.75;4484433;32;33993;-67
2022/04/28 03:35:33;;;;;;;5.45;2.95;;;;;;;11.56;76.13;100213.69;4485498;32;34353;-67
2022/04/28 03:38:01;;;;;;;5.65;3.03;;;;;;;11.64;76.02;100216.03;4485577;32;34445;-67
2022/04/28 03:40:29;;;;;;;5.47;2.92;;;;;;;11.74;75.85;100222.72;4485987;32;34242;-66
2022/04/28 03:42:57;;;;;;;5.12;3.17;;;;;;;11.97;74.67;100217.16;4485563;32;33720;-65
2022/04/28 03:45:25;;;;;;;4.57;3.15;;;;;;;11.89;74.74;100218.38;4485552;32;34048;-65
2022/04/28 03:47:53;;;;;;;5.85;3.35;;;;;;;11.40;76.70;100219.91;4485582;32;34008;-65
2022/04/28 03:50:21;;;;;;;8.55;3.70;;;;;;;11.67;75.59;100228.31;4485569;32;33462;-65
2022/04/28 03:52:49;;;;;;;5.40;3.47;;;;;;;12.37;72.21;100229.75;4485614;32;33606;-66
2022/04/28 03:55:16;;;;;;;4.57;3.00;;;;;;;11.77;74.51;100230.37;4485576;32;34173;-66
2022/04/28 03:57:44;;;;;;;5.60;3.35;;;;;;;11.87;74.12;100234.09;4485075;32;34391;-65
2022/04/28 04:00:12;;;;;;;4.95;3.35;;;;;;;11.59;75.60;100236.84;4484241;31;33586;-64
2022/04/28 04:02:41;;;;;;;5.90;3.33;;;;;;;11.57;75.72;100239.78;4482786;32;34148;-67
2022/04/28 04:05:10;;;;;;;6.40;3.60;;;;;;;11.65;75.61;100242.12;4477766;32;34281;-67
2022/04/28 04:07:38;;;;;;;6.25;3.80;;;;;;;11.86;74.50;100237.88;4475178;32;33961;-69
2022/04/28 04:10:07;;;;;;;5.68;3.33;;;;;;;11.62;75.67;100239.91;4467566;32;33653;-71
2022/04/28 04:12:35;;;;;;;4.53;3.05;;;;;;;11.55;76.25;100241.94;4478901;32;34759;-71
2022/04/28 04:15:05;;;;;;;5.22;3.15;;;;;;;11.65;75.99;100239.41;4484819;32;34290;-69
2022/04/28 04:17:41;;;;;;;8.82;3.75;;;;;;;11.73;75.50;100246.34;4471436;32;34609;-70
2022/04/28 04:20:09;;;;;;;5.40;3.47;;;;;;;12.28;73.55;100234.78;4468468;32;33202;-64
2022/04/28 04:22:37;;;;;;;5.05;2.97;;;;;;;11.92;74.86;100246.97;4479608;32;34626;-70
2022/04/28 04:25:06;;;;;;;5.40;3.10;;;;;;;11.86;75.34;100250.66;4483669;32;35193;-65
2022/04/28 04:27:33;;;;;;;5.30;3.08;;;;;;;11.82;75.92;100249.50;4482804;32;34614;-64
2022/04/28 04:32:17;;;;;;;4.62;2.95;;;;;;;11.86;75.60;100258.81;4483500;32;33576;-64
2022/04/28 04:32:50;;;;;;;5.45;3.65;;;;;;;11.94;75.27;100250.28;4483643;32;34521;-64
2022/04/28 04:35:19;;;;;;;4.55;3.12;;;;;;;11.96;75.51;100250.84;4484116;32;34218;-64
2022/04/28 04:37:46;;;;;;;5.07;2.90;;;;;;;11.67;76.25;100248.16;4478862;32;33786;-71
2022/04/28 04:40:14;;;;;;;7.90;3.60;;;;;;;12.25;74.01;100250.81;4475641;32;34236;-70
2022/04/28 04:42:42;;;;;;;5.87;3.30;;;;;;;12.01;74.28;100256.41;4476828;32;34495;-69
2022/04/28 04:45:10;;;;;;;4.47;3.15;;;;;;;12.24;73.74;100254.59;4475394;32;35047;-66
2022/04/28 04:47:39;;;;;;;6.00;3.20;;;;;;;12.30;73.28;100245.44;4475841;31;32882;-67
2022/04/28 04:50:08;;;;;;;5.87;3.58;;;;;;;12.52;72.18;100251.75;4475385;32;33794;-65
2022/04/28 04:52:36;;;;;;;3.25;2.72;;;;;;;12.66;71.64;100254.16;4474549;32;33558;-67
2022/04/28 04:55:04;;;;;;;4.80;3.22;;;;;;;12.58;71.65;100254.56;4475917;32;34056;-70
2022/04/28 04:57:37;;;;;;;5.15;3.00;;;;;;;12.16;73.14;100264.00;4482322;32;34616;-68
2022/04/28 05:00:07;;;;;;;5.82;3.55;;;;;;;11.92;74.63;100260.56;4483340;32;34053;-63
2022/04/28 05:02:36;;;;;;;7.40;3.60;;;;;;;12.37;72.96;100264.31;4482973;32;33994;-69
2022/04/28 05:05:05;;;;;;;5.82;3.55;;;;;;;12.45;72.31;100264.72;4483389;32;35013;-65
2022/04/28 05:07:33;;;;;;;5.40;2.95;;;;;;;12.07;74.05;100266.31;4483288;32;34064;-68
2022/04/28 05:10:00;;;;;;;5.10;3.50;;;;;;;12.41;73.03;100271.72;4480129;32;33199;-73
2022/04/28 05:12:30;;;;;;;4.40;2.90;;;;;;;12.77;72.39;100272.28;4467648;32;34888;-77
2022/04/28 05:14:59;;;;;;;6.53;4.95;;;;;;;12.57;74.12;100277.41;4467750;32;34911;-65
2022/04/28 05:17:27;;;;;;;5.78;3.65;;;;;;;12.94;72.19;100285.84;4468625;32;33955;-66
2022/04/28 05:19:58;;;;;;;5.90;3.35;;;;;;;13.12;71.06;100273.84;4469805;32;33516;-65
2022/04/28 05:22:28;;;;;;;4.78;3.40;;;;;;;13.02;71.96;100287.31;4469700;32;32251;-65
2022/04/28 05:24:57;;;;;;;6.68;3.40;;;;;;;12.84;71.46;100280.25;4469904;32;35131;-75
2022/04/28 05:27:28;;;;;;;5.68;3.40;;;;;;;12.86;72.64;100284.37;4469757;32;32258;-71
2022/04/28 05:29:56;;;;;;;6.95;4.25;;;;;;;12.84;72.84;100291.16;4469764;32;32026;-65
2022/04/28 05:32:24;;;;;;;5.68;3.67;;;;;;;12.71;73.99;100292.34;4469450;32;34626;-67
2022/04/28 05:34:52;;;;;;;6.97;4.37;;;;;;;12.93;72.68;100295.91;4467212;32;34863;-77
2022/04/28 05:37:20;;;;;;;5.95;3.58;;;;;;;13.16;71.89;100299.50;4469329;32;34192;-64
2022/04/28 05:39:47;;;;;;;5.57;3.55;;;;;;;12.74;73.28;100300.00;4469486;32;34456;-65
2022/04/28 05:42:15;;;;;;;6.20;3.62;;;;;;;12.93;72.38;100304.06;4469654;32;33996;-71
2022/04/28 05:47:30;;;;;;;4.22;3.12;;;;;;;12.95;73.57;100300.28;4468089;32;34449;-78
2022/04/28 05:49:57;;;;;;;5.43;2.90;;;;;;;12.99;72.80;100306.91;4468981;32;33571;-75
2022/04/28 05:52:25;;;;;;;4.00;2.50;;;;;;;13.12;72.19;100310.06;4469079;32;34086;-73
2022/04/28 05:54:53;;;;;;;3.72;2.45;;;;;;;13.31;72.01;100299.72;4469397;32;34280;-76
2022/04/28 05:57:20;;;;;;;4.37;2.50;;;;;;;13.27;71.67;100306.72;4469360;32;33666;-76
2022/04/28 05:59:48;;;;;;;4.40;2.58;;;;;;;13.25;71.52;100302.59;4469148;32;33203;-65
2022/04/28 06:02:16;;;;;;;4.28;2.95;;;;;;;12.89;74.32;100310.28;4476271;32;32324;-73
2022/04/28 06:04:44;;;;;;;3.85;2.40;;;;;;;13.50;72.26;100302.16;4484772;32;33994;-70
2022/04/28 06:07:12;;;;;;;3.87;2.62;;;;;;;13.91;69.54;100300.69;4485012;32;33654;-64
2022/04/28 06:09:40;;;;;;;3.45;2.33;;;;;;;13.48;69.99;100310.56;4485151;32;33354;-67
2022/04/28 06:12:08;;;;;;;4.40;2.47;;;;;;;14.10;68.89;100311.22;4485241;32;33717;-65
2022/04/28 06:14:38;;;;;;;5.85;2.87;;;;;;;13.70;70.42;100316.00;4485086;32;34264;-65
2022/04/28 06:17:08;;;;;;;4.12;2.50;;;;;;;13.83;69.25;100317.50;4484766;32;34173;-75
2022/04/28 06:19:36;;;;;;;2.92;2.35;;;;;;;14.00;69.38;100320.12;4484752;32;34320;-64
2022/04/28 06:22:06;;;;;;;3.47;2.45;;;;;;;13.82;68.05;100323.19;4484806;32;33274;-74
2022/04/28 06:24:34;;;;;;;4.68;2.65;;;;;;;13.90;68.16;100326.28;4485013;32;35027;-68
2022/04/28 06:27:03;;;;;;;3.33;2.12;;;;;;;13.51;71.90;100328.31;4482928;32;33711;-76
2022/04/28 06:29:31;;;;;;;2.75;1.90;;;;;;;13.40;72.29;100330.09;4483089;32;33702;-76
2022/04/28 06:31:59;;;;;;;3.78;2.40;;;;;;;14.11;69.36;100329.25;4484680;32;34038;-77
2022/04/28 06:34:28;;;;;;;4.00;2.58;;;;;;;14.60;67.44;100334.63;4484661;32;33855;-77
2022/04/28 06:36:56;;;;;;;3.67;2.22;;;;;;;14.64;66.91;100330.25;4484933;32;33729;-75
2022/04/28 06:39:24;;;;;;;3.45;2.35;;;;;;;14.83;64.64;100335.31;4485064;32;33573;-75
2022/04/28 06:41:51;;;;;;;5.22;2.78;;;;;;;14.71;64.82;100339.06;4484646;32;34612;-74
2022/04/28 06:44:19;;;;;;;4.15;2.35;;;;;;;14.59;65.65;100338.44;4484720;32;33699;-74
2022/04/28 06:46:49;;;;;;;3.30;2.20;;;;;;;14.61;64.89;100332.72;4484171;32;32307;-74
2022/04/28 06:49:19;;;;;;;2.20;1.65;;;;;;;14.74;65.36;100329.53;4484482;31;32957;-74
2022/04/28 06:51:51;;;;;;;2.90;2.00;;;;;;;14.31;67.89;100328.59;4484564;32;34102;-70
2022/04/28 06:54:22;;;;;;;3.03;1.80;;;;;;;14.24;67.22;100337.00;4484984;32;33618;-76
2022/04/28 06:56:55;;;;;;;3.15;2.00;;;;;;;14.45;68.68;100337.19;4484326;32;33941;-74
2022/04/28 06:59:23;;;;;;;3.40;2.12;;;;;;;14.66;66.02;100335.47;4483927;32;34140;-67
2022/04/28 07:01:50;;;;;;;3.60;2.25;;;;;;;14.62;66.26;100332.47;4485958;32;33878;-73
2022/04/28 07:04:19;;;;;;;4.10;2.30;;;;;;;14.82;66.10;100330.97;4485536;32;34844;-76
2022/04/28 07:06:47;;;;;;;4.18;2.50;;;;;;;15.09;63.47;100336.31;4486018;32;33772;-75
2022/04/28 07:09:19;;;;;;;4.00;2.72;;;;;;;14.65;65.87;100337.38;4484898;32;33477;-69
2022/04/28 07:11:46;;;;;;;4.60;2.60;;;;;;;15.12;62.67;100336.63;4482387;32;33856;-70
2022/04/28 07:14:16;;;;;;;5.20;2.40;;;;;;;14.74;64.05;100338.53;4484107;31;33919;-64
2022/04/28 07:16:46;;;;;;;6.12;2.40;;;;;;;14.74;63.72;100332.25;4485719;31;33205;-72
2022/04/28 07:19:16;;;;;;;4.37;2.92;;;;;;;14.52;66.12;100338.63;4486095;32;34461;-77
2022/04/28 07:21:44;;;;;;;4.30;2.62;;;;;;;14.80;64.00;100335.87;4485715;32;34873;-73
2022/04/28 07:24:11;;;;;;;3.92;1.98;;;;;;;15.05;62.61;100336.00;4485458;32;34110;-79
2022/04/28 07:26:39;;;;;;;4.18;2.62;;;;;;;15.16;62.42;100343.19;4485511;32;34579;-73
2022/04/28 07:29:07;;;;;;;4.65;2.67;;;;;;;14.90;62.26;100346.84;4485952;32;34216;-65
2022/04/28 07:31:36;;;;;;;3.75;2.42;;;;;;;14.57;64.54;100346.06;4485866;31;32274;-75
2022/04/28 07:34:10;;;;;;;;;;;;;;;13.67;69.84;100353.84;4486393;31;32694;-75
2022/04/28 07:36:43;;;;;;;4.72;2.42;;;;;;;13.97;69.20;100358.00;4485840;31;32548;-66
2022/04/28 07:39:13;;;;;;;4.28;2.60;;;;;;;14.00;67.48;100355.59;4485478;31;32951;-71
2022/04/28 07:41:43;;;;;;;4.40;2.62;;;;;;;14.61;64.49;100360.03;4485980;32;34112;-75
2022/04/28 07:44:11;;;;;;;4.10;2.45;;;;;;;14.34;68.23;100360.84;4485717;32;34931;-74
2022/04/28 07:46:39;;;;;;;3.72;2.33;;;;;;;14.60;65.23;100359.22;4485782;32;33886;-73
2022/04/28 07:49:07;;;;;;;4.22;2.40;;;;;;;14.82;64.79;100361.84;4485612;32;33354;-74
2022/04/28 07:51:35;;;;;;;3.25;2.45;;;;;;;15.33;65.04;100367.62;4485633;32;34769;-67
2022/04/28 07:54:04;;;;;;;3.53;2.45;;;;;;;15.47;65.26;100369.88;4485632;32;34238;-71
2022/04/28 07:56:31;;;;;;;4.47;2.50;;;;;;;15.48;62.35;100364.12;4485436;32;33971;-82
2022/04/28 07:58:59;;;;;;;3.03;2.20;;;;;;;15.24;63.06;100365.66;4485259;32;34242;-73
2022/04/28 08:01:47;;;;;;;3.87;2.22;;;;;;;16.16;61.41;100363.31;4485424;32;34100;-65
2022/04/28 08:04:15;;;;;;;3.35;2.37;;;;;;;16.27;59.61;100369.63;4485339;32;35047;-72
2022/04/28 08:06:43;;;;;;;2.72;2.08;;;;;;;16.95;63.81;100366.63;4485564;32;34734;-73
2022/04/28 08:09:11;;;;;;;2.53;1.98;;;;;;;16.97;62.18;100364.44;4485634;32;33781;-73
2022/04/28 08:11:40;;;;;;;2.05;1.40;;;;;;;16.83;57.85;100371.59;4485247;32;34794;-65
2022/04/28 08:14:08;;;;;;;1.98;1.37;;;;;;;17.42;58.12;100371.72;4485469;32;34197;-65
2022/04/28 08:16:37;;;;;;;2.05;1.50;;;;;;;17.46;51.27;100371.19;4485476;32;34521;-66
2022/04/28 08:19:06;;;;;;;2.75;1.52;;;;;;;17.74;54.03;100378.75;4485407;32;34193;-65
2022/04/28 08:21:34;;;;;;;4.47;2.50;;;;;;;18.98;54.45;100374.09;4485379;32;34093;-71
2022/04/28 08:24:01;;;;;;;4.53;2.60;;;;;;;19.00;56.50;100377.38;4473718;32;34203;-66
2022/04/28 08:26:29;;;;;;;3.00;2.03;;;;;;;18.50;55.26;100384.12;4469674;32;34573;-71
2022/04/28 08:28:57;;;;;;;3.55;2.10;;;;;;;18.07;54.02;100390.16;4469422;32;33571;-68
2022/04/28 08:31:26;;;;;;;2.97;1.77;;;;;;;18.62;51.48;100387.34;4469497;32;33933;-72
2022/04/28 08:33:54;;;;;;;3.80;2.22;;;;;;;18.18;54.28;100385.41;4469388;32;35061;-69
2022/04/28 08:36:22;;;;;;;4.45;2.08;;;;;;;18.33;52.02;100387.25;4469550;32;33959;-71
2022/04/28 08:38:50;;;;;;;3.17;2.08;;;;;;;18.04;55.85;100394.28;4469456;32;32923;-70
2022/04/28 08:41:31;;;;;;;3.85;2.10;;;;;;;17.05;56.53;100385.00;4469385;32;34130;-72
2022/04/28 08:44:05;;;;;;;3.67;2.10;;;;;;;17.11;55.86;100389.37;4468250;32;33086;-69
2022/04/28 08:46:52;;;;;;;2.83;1.87;;;;;;;18.17;55.34;100384.59;4469651;32;33926;-71
2022/04/28 08:49:23;;;;;;;2.40;1.50;;;;;;;18.22;56.20;100389.25;4469090;32;33601;-68
2022/04/28 08:51:57;;;;;;;2.80;1.70;;;;;;;18.45;52.32;100384.97;4470252;32;34821;-73
2022/04/28 08:54:26;;;;;;;2.42;1.70;;;;;;;18.06;53.16;100394.03;4471366;32;34968;-70
2022/04/28 08:56:56;;;;;;;2.25;1.77;;;;;;;17.15;52.43;100390.47;4471125;32;34921;-70
2022/04/28 08:59:24;;;;;;;3.17;2.00;;;;;;;17.49;56.01;100398.88;4470796;32;33627;-67
2022/04/28 09:01:52;;;;;;;2.20;1.60;;;;;;;17.16;55.39;100392.91;4471010;32;34113;-68
2022/04/28 09:04:27;;;;;;;2.87;1.80;;;;;;;16.43;57.09;100397.84;4471122;32;33983;-69
2022/04/28 09:06:59;;;;;;;3.17;2.22;;;;;;;16.32;55.93;100394.25;4471067;32;32420;-73
2022/04/28 09:09:32;;;;;;;2.62;1.90;;;;;;;16.92;55.37;100397.34;4470730;32;31953;-70
2022/04/28 09:12:10;;;;;;;2.53;2.05;;;;;;;17.08;56.77;100398.97;4471216;32;34624;-72
2022/04/28 09:14:43;;;;;;;4.43;2.62;;;;;;;17.75;53.22;100394.13;4469961;32;34041;-72
2022/04/28 09:17:11;;;;;;;3.60;2.25;;;;;;;17.83;54.04;100400.97;4470938;32;33898;-73
2022/04/28 09:19:40;;;;;;;3.30;2.33;;;;;;;17.43;54.08;100400.81;4469567;32;34320;-69
2022/04/28 09:22:13;;;;;;;2.67;1.90;;;;;;;17.15;55.49;100395.97;4470761;32;33635;-69
2022/04/28 09:24:44;;;;;;;3.58;2.10;;;;;;;16.91;58.06;100401.16;4470899;32;34175;-70
2022/04/28 09:27:14;;;;;;;2.80;2.20;;;;;;;17.18;55.32;100404.44;4470511;32;33960;-69
2022/04/28 09:29:44;;;;;;;3.42;2.20;;;;;;;17.56;55.95;100401.34;4470995;32;33254;-69
2022/04/28 09:32:13;;;;;;;4.60;2.50;;;;;;;17.79;55.69;100406.16;4469580;32;33791;-69
2022/04/28 09:35:08;;;;;;;3.78;2.58;;;;;;;17.30;55.33;100404.16;4470994;32;33298;-70
2022/04/28 09:37:38;;;;;;;3.40;2.10;;;;;;;17.81;55.77;100409.47;4471126;32;34223;-70
2022/04/28 09:42:53;;;;;;;2.60;2.15;;;;;;;18.04;54.99;100410.75;4471116;32;33937;-71
2022/04/28 09:45:25;;;;;;;3.12;2.17;;;;;;;18.11;54.45;100407.72;4471158;32;33933;-71
2022/04/28 09:48:04;;;;;;;4.45;2.95;;;;;;;17.42;54.09;100404.66;4469558;32;34267;-69
2022/04/28 09:50:32;;;;;;;3.70;2.47;;;;;;;17.65;56.05;100409.81;4469659;32;33674;-71
2022/04/28 09:53:05;;;;;;;4.62;2.50;;;;;;;18.26;52.88;100406.00;4470984;32;34878;-67
2022/04/28 09:55:36;;;;;;;3.95;2.30;;;;;;;17.95;54.03;100412.47;4470747;32;32483;-67
2022/04/28 09:58:07;;;;;;;3.75;2.35;;;;;;;18.19;52.18;100412.63;4470858;32;34727;-64
2022/04/28 10:00:35;;;;;;;3.70;2.30;;;;;;;18.10;53.99;100419.81;4470837;32;34354;-71
2022/04/28 10:03:03;;;;;;;3.17;1.98;;;;;;;18.64;50.88;100409.84;4470729;32;33833;-64
2022/04/28 10:05:31;;;;;;;2.97;2.12;;;;;;;18.80;52.67;100416.06;4470749;32;34368;-64
2022/04/28 10:07:59;;;;;;;3.30;1.90;;;;;;;18.57;50.24;100412.91;4481147;32;34707;-70
2022/04/28 10:10:27;;;;;;;3.28;2.22;;;;;;;18.08;51.38;100408.28;4470141;32;34305;-64
2022/04/28 10:12:55;;;;;;;3.67;1.75;;;;;;;17.60;53.42;100405.16;4466692;32;33808;-67
2022/04/28 10:15:24;;;;;;;3.33;2.17;;;;;;;17.41;51.36;100407.69;4469082;32;34927;-71
2022/04/28 10:17:55;;;;;;;3.30;2.17;;;;;;;17.79;51.44;100406.16;4468950;32;34477;-71
2022/04/28 10:20:35;;;;;;;3.33;1.90;;;;;;;17.71;51.83;100406.78;4469275;32;33560;-70
2022/04/28 10:32:22;;;;;;;3.00;1.75;;;;;;;17.65;53.12;100409.81;4469689;32;34675;-69
2022/04/28 10:34:58;;;;;;;2.78;1.60;;;;;;;17.39;47.18;100404.41;4470256;32;33761;-76
2022/04/28 10:37:33;;;;;;;1.85;1.20;;;;;;;16.95;42.67;100402.25;4470473;32;34027;-71
2022/04/28 10:40:03;;;;;;;1.42;1.27;;;;;;;17.32;44.08;100401.97;4468579;32;34307;-76
2022/04/28 10:42:34;;;;;;;2.37;1.55;;;;;;;17.35;46.64;100406.87;4470422;32;33432;-74
2022/04/28 10:45:05;;;;;;;2.17;1.52;;;;;;;18.18;42.32;100404.66;4470236;32;34594;-70
2022/04/28 10:47:37;;;;;;;2.47;1.42;;;;;;;18.27;44.81;100413.94;4469231;32;34963;-70
2022/04/28 10:50:25;;;;;;;2.10;1.37;;;;;;;18.48;44.51;100403.63;4468991;32;34030;-71
2022/04/28 10:53:05;;;;;;;1.92;1.50;;;;;;;18.47;44.93;100399.25;4469057;32;34326;-70
2022/04/28 10:55:44;;;;;;;2.40;1.25;;;;;;;18.09;45.28;100409.91;4470154;32;34008;-72
2022/04/28 10:58:18;;;;;;;2.35;1.37;;;;;;;18.03;44.17;100408.28;4469038;32;34505;-71
2022/04/28 11:00:57;;;;;;;2.28;1.58;;;;;;;18.20;45.24;100405.19;4469928;32;34024;-72
2022/04/28 11:04:01;;;;;;;4.28;2.00;;;;;;;18.34;49.50;100410.88;4469065;32;34078;-71
2022/04/28 11:06:37;;;;;;;3.58;1.90;;;;;;;18.33;50.67;100418.28;4416606;32;32505;-71
2022/04/28 11:09:06;;;;;;;2.50;1.83;;;;;;;18.30;50.13;100412.56;4456490;32;33239;-73
2022/04/28 11:11:45;;;;;;;2.75;2.10;;;;;;;18.82;48.42;100416.63;4468939;32;33850;-70
2022/04/28 11:14:14;;;;;;;2.95;2.08;;;;;;;19.00;48.00;100413.13;4469668;32;33229;-69
2022/04/28 11:16:42;;;;;;;3.25;1.95;;;;;;;19.25;46.61;100417.59;4468841;32;33661;-71
2022/04/28 11:19:11;;;;;;;2.72;1.75;;;;;;;19.36;47.10;100421.06;4468930;32;34499;-70
2022/04/28 11:21:43;;;;;;;2.00;1.40;;;;;;;19.69;47.33;100410.22;4468934;32;33779;-70
2022/04/28 11:24:11;;;;;;;2.70;1.73;;;;;;;19.43;46.02;100421.53;4469688;32;33568;-77
2022/04/28 11:26:39;;;;;;;1.50;1.40;;;;;;;19.21;47.49;100418.47;4470340;32;33991;-69
2022/04/28 11:29:09;;;;;;;3.67;1.55;;;;;;;19.57;47.60;100416.16;4470302;32;34009;-70
2022/04/28 11:31:45;;;;;;;1.35;1.20;;;;;;;19.21;46.71;100421.22;4468406;32;34076;-75
2022/04/28 11:34:13;;;;;;;1.95;1.42;;;;;;;18.65;44.43;100423.28;4470330;32;33780;-75
2022/04/28 11:36:41;;;;;;;2.62;1.58;;;;;;;17.99;47.61;100434.66;4469677;32;34562;-71
2022/04/28 11:39:10;;;;;;;2.03;1.52;;;;;;;18.60;45.98;100434.34;4468828;32;34333;-68
2022/04/28 11:41:42;;;;;;;2.58;1.55;;;;;;;18.36;47.85;100434.22;4469991;32;34667;-70
2022/04/28 11:44:11;;;;;;;2.20;1.37;;;;;;;18.42;46.65;100438.59;4469727;32;33246;-69
2022/04/28 11:46:42;;;;;;;2.60;1.40;;;;;;;18.57;47.08;100445.88;4468616;32;33977;-68
2022/04/28 11:49:09;;;;;;;2.92;1.85;;;;;;;18.88;46.17;100436.63;4469805;32;34889;-68
2022/04/28 11:51:37;;;;;;;2.47;1.70;;;;;;;19.16;46.60;100435.84;4469887;32;34010;-70
2022/04/28 11:54:17;;;;;;;2.85;1.98;;;;;;;19.03;47.35;100445.56;4468681;32;33490;-73
2022/04/28 11:56:45;;;;;;;2.03;1.60;;;;;;;18.87;44.93;100433.06;4468496;32;33948;-74
2022/04/28 11:59:13;;;;;;;2.53;1.70;;;;;;;18.95;45.81;100437.94;4469679;32;33967;-68